< < Back
Terminal Aerodrome Forecast


Current Version              Previous Versions:   1  2  3  4  5  6  7  8  9  

Terminal Aerodrome Forecast

016
FTUS42 KJAX 302325
TAFJAX
TAF
KJAX 302325Z 0100/0124 VRB03KT P6SM SCT040 SCT100 BKN250
     FM011500 25006KT P6SM SCT030 SCT250
     FM011800 25007KT P6SM VCTS BKN040CB BKN250
     FM012200 22005KT P6SM VCSH SCT040 BKN250=

Latest METAR

942
SAUS80 KWBC 302300 RRA
MTRJAX
METAR KJAX 302256Z 08004KT 10SM FEW015 FEW035 SCT150 SCT250 27/24 A3000
RMK AO2 SLP159 T02720244


USA.gov is the U.S. government's official web portal to all federal, state and local government web resources and services.